Time;durP1;ratioP1;P1;durP2;ratioP2;P2;SDS_P1;SDS_P2;PMS_P1;PMS_P2;Temp;Humidity;BMP_temperature;BMP_pressure;BME280_temperature;BME280_humidity;BME280_pressure;Samples;Min_cycle;Max_cycle;Signal;HPM_P1;HPM_P2
2022/08/10 00:00:19;;;;;;;10.63;4.70;;;16.00;99.90;;;;;;4919067;29;20046;-87
2022/08/10 00:02:16;;;;;;;9.32;4.75;;;15.90;99.90;;;;;;4951606;28;20109;-88
2022/08/10 00:04:41;;;;;;;9.02;4.75;;;15.80;99.90;;;;;;4935093;29;20047;-88
2022/08/10 00:07:07;;;;;;;9.10;4.55;;;15.80;99.90;;;;;;4935344;29;20110;-88
2022/08/10 00:09:33;;;;;;;9.82;4.78;;;15.80;99.90;;;;;;4918697;29;20047;-88
2022/08/10 00:11:59;;;;;;;9.63;4.78;;;15.70;99.90;;;;;;4919678;29;20042;-87
2022/08/10 00:14:25;;;;;;;10.00;4.82;;;15.70;99.90;;;;;;4919427;29;20126;-88
2022/08/10 00:16:50;;;;;;;9.18;5.00;;;15.60;99.90;;;;;;4932971;29;20039;-88
2022/08/10 00:19:16;;;;;;;9.75;5.15;;;15.70;99.90;;;;;;4951439;29;20103;-87
2022/08/10 00:21:42;;;;;;;9.93;5.00;;;15.70;99.90;;;;;;4932794;29;20118;-87
2022/08/10 00:24:08;;;;;;;9.20;4.85;;;15.70;99.90;;;;;;4920228;29;20050;-87
2022/08/10 00:26:34;;;;;;;10.05;5.07;;;15.70;99.90;;;;;;4919316;29;20450;-87
2022/08/10 00:28:59;;;;;;;9.68;5.20;;;15.60;99.90;;;;;;4933745;29;20050;-87
2022/08/10 00:31:25;;;;;;;9.43;5.28;;;15.60;99.90;;;;;;4921809;29;20054;-87
2022/08/10 00:33:51;;;;;;;10.50;5.65;;;15.60;99.90;;;;;;4934012;29;20055;-87
2022/08/10 00:36:16;;;;;;;10.48;5.57;;;15.60;99.90;;;;;;4935514;29;20126;-87
2022/08/10 00:38:42;;;;;;;10.93;5.35;;;15.60;99.90;;;;;;4934322;29;20122;-87
2022/08/10 00:41:08;;;;;;;10.35;5.20;;;15.60;99.90;;;;;;4912664;29;20035;-88
2022/08/10 00:43:33;;;;;;;11.57;5.80;;;15.60;99.90;;;;;;4925138;29;20043;-88
2022/08/10 00:45:59;;;;;;;10.77;5.40;;;15.50;99.90;;;;;;4935179;28;20485;-87
2022/08/10 00:48:26;;;;;;;9.32;5.60;;;15.50;99.90;;;;;;4933906;29;20516;-87
2022/08/10 00:50:51;;;;;;;11.23;5.82;;;15.60;99.90;;;;;;4934959;29;20102;-88
2022/08/10 00:53:17;;;;;;;10.40;5.70;;;15.50;99.90;;;;;;4899969;29;20458;-87
2022/08/10 00:55:44;;;;;;;10.18;5.70;;;15.50;99.90;;;;;;4946588;28;20050;-87
2022/08/10 00:58:10;;;;;;;9.63;5.43;;;15.50;99.90;;;;;;4917683;28;20108;-88
2022/08/10 01:00:35;;;;;;;11.23;5.38;;;15.50;99.90;;;;;;4918893;29;20398;-88
2022/08/10 01:03:01;;;;;;;11.27;6.05;;;15.50;99.90;;;;;;4934848;29;20046;-87
2022/08/10 01:05:27;;;;;;;10.38;5.78;;;15.50;99.90;;;;;;4950294;28;20115;-87
2022/08/10 01:07:56;;;;;;;10.30;5.82;;;15.50;99.90;;;;;;4916528;28;20075;-87
2022/08/10 01:10:50;;;;;;;11.85;6.65;;;15.50;99.90;;;;;;4934555;29;20054;-88
2022/08/10 01:13:30;;;;;;;10.32;5.88;;;15.50;99.90;;;;;;4931772;29;20082;-88
2022/08/10 01:16:08;;;;;;;12.02;6.18;;;15.50;99.90;;;;;;4935265;29;20047;-88
2022/08/10 01:19:02;;;;;;;12.02;6.15;;;15.50;99.90;;;;;;4946577;28;20412;-87
2022/08/10 01:21:54;;;;;;;11.02;6.32;;;15.50;99.90;;;;;;4942788;28;20206;-88
2022/08/10 01:24:38;;;;;;;11.82;6.45;;;15.50;99.90;;;;;;4932549;29;20329;-88
2022/08/10 01:27:20;;;;;;;11.48;6.60;;;15.50;99.90;;;;;;4932794;28;20047;-87
2022/08/10 01:29:54;;;;;;;12.20;6.63;;;15.50;99.90;;;;;;4934296;29;20049;-87
2022/08/10 01:32:30;;;;;;;12.63;6.93;;;15.50;99.90;;;;;;4948022;28;20043;-87
2022/08/10 01:35:10;;;;;;;10.90;6.35;;;15.50;99.90;;;;;;4926756;29;20062;-87
2022/08/10 01:37:44;;;;;;;11.93;6.93;;;15.50;99.90;;;;;;4931425;29;20098;-87
2022/08/10 01:40:12;;;;;;;11.40;6.57;;;15.50;99.90;;;;;;4948288;28;20306;-88
2022/08/10 01:42:41;;;;;;;11.50;7.03;;;15.80;99.90;;;;;;4918243;29;20118;-88
2022/08/10 01:45:09;;;;;;;11.98;6.90;;;15.50;99.90;;;;;;4948397;28;20047;-88
2022/08/10 01:50:30;;;;;;;11.77;6.35;;;15.50;99.90;;;;;;4948747;28;20051;-87
2022/08/10 01:53:04;;;;;;;11.93;6.10;;;15.50;99.90;;;;;;4929464;28;20043;-87
2022/08/10 01:55:32;;;;;;;12.30;7.07;;;15.50;99.90;;;;;;4949656;28;20800;-87
2022/08/10 01:58:02;;;;;;;15.35;6.97;;;15.40;99.90;;;;;;4912720;28;20145;-87
2022/08/10 02:00:31;;;;;;;14.20;7.05;;;15.50;99.90;;;;;;4932003;29;20045;-87
2022/08/10 02:02:59;;;;;;;11.88;6.38;;;15.50;99.90;;;;;;4933171;29;20515;-87
2022/08/10 02:05:28;;;;;;;12.65;6.60;;;15.50;99.90;;;;;;4933498;29;20546;-87
2022/08/10 02:07:56;;;;;;;11.48;6.70;;;15.50;99.90;;;;;;4945180;28;20464;-87
2022/08/10 02:10:23;;;;;;;11.95;6.20;;;15.50;99.90;;;;;;4949600;29;20081;-87
2022/08/10 02:12:55;;;;;;;11.23;6.43;;;15.40;99.90;;;;;;4932969;29;20043;-87
2022/08/10 02:15:22;;;;;;;10.93;6.15;;;15.40;99.90;;;;;;4915195;28;20043;-87
2022/08/10 02:17:52;;;;;;;10.80;6.47;;;15.40;99.90;;;;;;4933521;29;20520;-87
2022/08/10 02:20:20;;;;;;;11.82;6.35;;;15.40;99.90;;;;;;4934889;29;20484;-87
2022/08/10 02:22:51;;;;;;;12.20;6.20;;;15.40;99.90;;;;;;4932723;29;20039;-87
2022/08/10 02:25:19;;;;;;;10.43;5.53;;;15.40;99.90;;;;;;4949624;28;20046;-87
2022/08/10 02:27:47;;;;;;;10.32;5.57;;;15.30;99.90;;;;;;4929475;29;20070;-87
2022/08/10 02:30:13;;;;;;;10.45;5.60;;;15.30;99.90;;;;;;4949970;28;20496;-87
2022/08/10 02:32:40;;;;;;;10.57;5.82;;;15.30;99.90;;;;;;4916125;29;20101;-87
2022/08/10 02:35:11;;;;;;;10.15;5.70;;;15.30;99.90;;;;;;4929902;29;20083;-87
2022/08/10 02:37:40;;;;;;;11.35;5.95;;;15.30;99.90;;;;;;4932551;29;20075;-87
2022/08/10 02:40:07;;;;;;;10.68;6.50;;;15.30;99.90;;;;;;4932624;29;20066;-87
2022/08/10 02:42:40;;;;;;;11.00;6.05;;;15.30;99.90;;;;;;4901924;28;20401;-87
2022/08/10 02:45:10;;;;;;;10.70;6.03;;;15.30;99.90;;;;;;4929054;29;20079;-87
2022/08/10 02:47:42;;;;;;;11.80;6.50;;;15.30;99.90;;;;;;4942798;28;20472;-87
2022/08/10 02:50:20;;;;;;;11.13;6.15;;;15.30;99.90;;;;;;4933806;29;20047;-87
2022/08/10 02:53:05;;;;;;;11.88;5.40;;;15.30;99.90;;;;;;4939982;28;20054;-87
2022/08/10 02:55:36;;;;;;;10.63;5.85;;;15.30;99.90;;;;;;4932486;29;20046;-88
2022/08/10 02:58:07;;;;;;;9.98;5.60;;;15.30;99.90;;;;;;4929904;28;20039;-87
2022/08/10 03:00:39;;;;;;;11.60;5.78;;;15.30;99.90;;;;;;4943883;29;20039;-87
2022/08/10 03:03:07;;;;;;;12.35;6.20;;;15.20;99.90;;;;;;4933304;29;20051;-87
2022/08/10 03:05:33;;;;;;;10.50;6.25;;;15.20;99.90;;;;;;4936274;29;20122;-87
2022/08/10 03:08:03;;;;;;;9.82;5.35;;;15.20;99.90;;;;;;4920254;29;20079;-87
2022/08/10 03:10:35;;;;;;;9.82;6.10;;;15.20;99.90;;;;;;4937728;29;20081;-87
2022/08/10 03:13:05;;;;;;;10.60;5.88;;;15.20;99.90;;;;;;4969398;28;20117;-87
2022/08/10 03:15:33;;;;;;;9.70;5.53;;;15.10;99.90;;;;;;4948513;28;20039;-87
2022/08/10 03:18:00;;;;;;;10.30;5.85;;;15.20;99.90;;;;;;4953209;28;20071;-87
2022/08/10 03:20:35;;;;;;;12.02;6.32;;;15.20;99.90;;;;;;4912265;29;20019;-87
2022/08/10 03:23:04;;;;;;;10.52;5.63;;;15.20;99.90;;;;;;4947177;29;20612;-88
2022/08/10 03:25:31;;;;;;;12.52;6.40;;;15.10;99.90;;;;;;4950871;28;20404;-88
2022/08/10 03:27:59;;;;;;;10.80;5.95;;;15.20;99.90;;;;;;4919388;28;20055;-87
2022/08/10 03:30:26;;;;;;;11.85;6.57;;;15.20;99.90;;;;;;4920088;29;20054;-88
2022/08/10 03:32:53;;;;;;;11.73;6.55;;;15.20;99.90;;;;;;4920192;29;20051;-88
2022/08/10 03:35:20;;;;;;;12.60;6.82;;;15.10;99.90;;;;;;4903482;29;20126;-87
2022/08/10 03:37:46;;;;;;;11.85;7.18;;;15.20;99.90;;;;;;4933868;29;20146;-88
2022/08/10 03:40:12;;;;;;;12.43;6.75;;;15.10;99.90;;;;;;4935943;29;20046;-88
2022/08/10 03:42:39;;;;;;;12.68;6.88;;;15.20;99.90;;;;;;4935636;29;20035;-88
2022/08/10 03:45:07;;;;;;;12.15;7.00;;;15.20;99.90;;;;;;4936257;28;20431;-88
2022/08/10 03:47:38;;;;;;;13.15;7.25;;;15.20;99.90;;;;;;4919503;28;20047;-88
2022/08/10 03:50:04;;;;;;;13.32;7.32;;;15.10;99.90;;;;;;4934978;29;20043;-87
2022/08/10 03:52:31;;;;;;;14.75;7.30;;;15.20;99.90;;;;;;4918488;29;20071;-88
2022/08/10 03:54:58;;;;;;;12.82;7.18;;;15.10;99.90;;;;;;4905471;29;20047;-87
2022/08/10 03:57:25;;;;;;;13.32;6.88;;;15.20;99.90;;;;;;4950348;28;20070;-87
2022/08/10 03:59:51;;;;;;;15.60;7.13;;;15.20;99.90;;;;;;4936372;29;20052;-87
2022/08/10 04:02:18;;;;;;;12.48;7.05;;;15.20;99.90;;;;;;4932839;29;20078;-87
2022/08/10 04:04:43;;;;;;;12.15;7.03;;;15.20;99.90;;;;;;4919253;29;20043;-87
2022/08/10 04:07:10;;;;;;;13.57;7.65;;;15.20;99.90;;;;;;4904050;29;20053;-87
2022/08/10 04:09:38;;;;;;;13.00;7.47;;;15.20;99.90;;;;;;4921148;29;20098;-87
2022/08/10 04:12:04;;;;;;;13.23;7.93;;;15.20;99.90;;;;;;4935090;28;20051;-87
2022/08/10 04:14:30;;;;;;;14.52;7.82;;;15.20;99.90;;;;;;4934212;29;20485;-88
2022/08/10 04:16:56;;;;;;;14.45;7.15;;;15.20;99.90;;;;;;4933554;29;20050;-87
2022/08/10 04:19:24;;;;;;;14.23;7.50;;;15.20;99.90;;;;;;4934112;29;20039;-87
2022/08/10 04:21:58;;;;;;;14.75;7.50;;;15.20;99.90;;;;;;4920868;29;20055;-87
2022/08/10 04:24:26;;;;;;;13.07;7.38;;;15.20;99.90;;;;;;4939264;28;20102;-87
2022/08/10 04:26:52;;;;;;;17.65;7.85;;;15.20;99.90;;;;;;4918521;28;20046;-87
2022/08/10 04:29:18;;;;;;;12.32;7.35;;;15.10;99.90;;;;;;4933781;29;20508;-87
2022/08/10 04:31:45;;;;;;;14.82;8.00;;;15.20;99.90;;;;;;4920448;29;20134;-87
2022/08/10 04:34:13;;;;;;;14.18;7.63;;;15.20;99.90;;;;;;4934507;29;20085;-87
2022/08/10 04:36:40;;;;;;;12.52;8.05;;;15.20;99.90;;;;;;4934809;28;20045;-87
2022/08/10 04:39:06;;;;;;;15.73;7.90;;;15.20;99.90;;;;;;4933818;28;20027;-88
2022/08/10 04:41:32;;;;;;;14.93;7.55;;;15.20;99.90;;;;;;4918683;29;20043;-86
2022/08/10 04:43:58;;;;;;;13.95;8.30;;;15.20;99.90;;;;;;4929636;29;20041;-86
2022/08/10 04:46:24;;;;;;;13.73;7.78;;;15.20;99.90;;;;;;4929111;29;20480;-87
2022/08/10 04:48:50;;;;;;;19.20;8.25;;;15.20;99.90;;;;;;4948996;28;20037;-87
2022/08/10 04:51:16;;;;;;;13.77;7.80;;;15.30;99.90;;;;;;4902596;29;20031;-87
2022/08/10 04:53:42;;;;;;;15.35;8.00;;;15.30;99.90;;;;;;4918023;28;20041;-87
2022/08/10 04:56:08;;;;;;;13.90;7.82;;;15.40;99.90;;;;;;4930467;29;20039;-89
2022/08/10 04:58:34;;;;;;;13.55;7.68;;;15.40;99.90;;;;;;4931863;29;20050;-87
2022/08/10 05:01:01;;;;;;;14.00;7.57;;;15.40;99.90;;;;;;4931742;29;20046;-86
2022/08/10 05:03:26;;;;;;;13.77;7.60;;;15.40;99.90;;;;;;4902408;29;20046;-87
2022/08/10 05:05:52;;;;;;;13.48;7.55;;;15.40;99.90;;;;;;4918298;29;20035;-87
2022/08/10 05:08:18;;;;;;;15.27;7.40;;;15.50;99.90;;;;;;4932220;28;20035;-86
2022/08/10 05:10:43;;;;;;;12.68;7.55;;;15.50;99.90;;;;;;4939273;29;20126;-86
2022/08/10 05:13:09;;;;;;;12.90;7.63;;;15.60;99.90;;;;;;4920462;29;20050;-87
2022/08/10 05:15:35;;;;;;;13.13;7.18;;;15.60;99.90;;;;;;4921614;29;20099;-85
2022/08/10 05:18:00;;;;;;;14.30;7.43;;;15.70;99.90;;;;;;4939238;29;20122;-87
2022/08/10 05:20:26;;;;;;;15.40;7.80;;;15.70;99.90;;;;;;4949052;28;20126;-87
2022/08/10 05:22:52;;;;;;;11.13;6.95;;;15.70;99.90;;;;;;4935469;28;20461;-87
2022/08/10 05:25:19;;;;;;;14.20;7.55;;;15.80;99.90;;;;;;4934315;29;20043;-87
2022/08/10 05:27:46;;;;;;;14.90;7.60;;;15.90;99.90;;;;;;4943924;28;20497;-86
2022/08/10 05:30:17;;;;;;;14.48;7.82;;;16.00;99.90;;;;;;4915116;29;20377;-86
2022/08/10 05:32:43;;;;;;;12.50;7.72;;;16.10;99.90;;;;;;4934189;29;20102;-86
2022/08/10 05:35:09;;;;;;;14.05;7.55;;;16.20;99.90;;;;;;4918485;29;20412;-86
2022/08/10 05:37:35;;;;;;;14.35;8.25;;;16.30;99.90;;;;;;4914478;28;20035;-86
2022/08/10 05:40:05;;;;;;;15.13;7.40;;;16.50;99.90;;;;;;4933992;29;20564;-86
2022/08/10 05:42:31;;;;;;;13.38;7.40;;;16.50;99.90;;;;;;4933321;29;20043;-86
2022/08/10 05:44:57;;;;;;;12.75;7.40;;;16.60;99.90;;;;;;4946920;28;20389;-87
2022/08/10 05:47:24;;;;;;;14.55;7.60;;;16.80;99.90;;;;;;4947009;28;20039;-87
2022/08/10 05:49:51;;;;;;;14.38;7.25;;;16.90;99.90;;;;;;4949537;28;20444;-87
2022/08/10 05:52:18;;;;;;;13.48;7.93;;;17.00;99.90;;;;;;4927913;29;20468;-87
2022/08/10 05:54:44;;;;;;;16.38;7.97;;;17.10;99.90;;;;;;4944074;29;20552;-87
2022/08/10 05:57:11;;;;;;;15.00;8.45;;;17.20;99.90;;;;;;4933547;29;20050;-87
2022/08/10 05:59:41;;;;;;;13.43;7.60;;;17.30;99.90;;;;;;4947446;28;20054;-86
2022/08/10 06:02:08;;;;;;;12.02;7.32;;;17.50;99.90;;;;;;4924891;29;20063;-87
2022/08/10 06:04:39;;;;;;;12.45;7.10;;;17.60;99.90;;;;;;4931609;28;20050;-87
2022/08/10 06:07:07;;;;;;;11.98;6.78;;;17.80;99.90;;;;;;4936934;28;20053;-85
2022/08/10 06:09:35;;;;;;;13.15;6.65;;;17.80;99.90;;;;;;4943554;28;20090;-87
2022/08/10 06:12:01;;;;;;;11.52;6.57;;;17.90;99.90;;;;;;4932405;29;21522;-86
2022/08/10 06:17:14;;;;;;;11.82;5.68;;;18.10;99.90;;;;;;4950421;28;20043;-86
2022/08/10 06:19:41;;;;;;;11.77;6.20;;;18.20;99.90;;;;;;4914624;28;20047;-86
2022/08/10 06:22:07;;;;;;;11.70;5.43;;;18.30;99.90;;;;;;4910037;28;20413;-86
2022/08/10 06:24:39;;;;;;;11.45;5.13;;;18.40;99.90;;;;;;4915524;29;20039;-87
2022/08/10 06:27:05;;;;;;;10.20;4.85;;;18.50;99.90;;;;;;4949909;28;20128;-86
2022/08/10 06:29:34;;;;;;;8.98;4.78;;;18.60;99.90;;;;;;4929677;28;20097;-87
2022/08/10 06:32:01;;;;;;;9.27;4.50;;;18.70;99.90;;;;;;4931498;29;20058;-87
2022/08/10 06:34:33;;;;;;;11.15;4.78;;;18.70;99.90;;;;;;4917289;29;20150;-86
2022/08/10 06:37:01;;;;;;;11.20;4.53;;;18.80;99.90;;;;;;4956763;28;20074;-86
2022/08/10 06:39:28;;;;;;;11.05;4.43;;;18.90;99.90;;;;;;4933379;29;20078;-87
2022/08/10 06:42:08;;;;;;;10.43;4.32;;;19.00;99.90;;;;;;4932068;28;20047;-86
2022/08/10 06:44:44;;;;;;;11.80;4.88;;;19.20;99.90;;;;;;4933858;29;20126;-85
2022/08/10 06:47:12;;;;;;;9.07;4.38;;;19.20;99.90;;;;;;4949848;28;20522;-87
2022/08/10 06:49:38;;;;;;;11.25;4.97;;;19.30;99.90;;;;;;4950384;28;20043;-86
2022/08/10 06:52:08;;;;;;;12.40;4.20;;;19.30;99.90;;;;;;4916168;29;20061;-85
2022/08/10 06:54:35;;;;;;;9.38;4.25;;;19.40;99.90;;;;;;4933810;29;20635;-86
2022/08/10 06:57:01;;;;;;;9.73;3.92;;;19.50;99.90;;;;;;4947613;28;20061;-86
2022/08/10 06:59:35;;;;;;;10.30;4.10;;;19.50;99.90;;;;;;4932023;29;20171;-87
2022/08/10 07:02:11;;;;;;;9.75;4.32;;;19.60;99.90;;;;;;4931729;29;20059;-86
2022/08/10 07:04:49;;;;;;;9.73;4.13;;;19.60;99.90;;;;;;4929932;29;20081;-87
2022/08/10 07:07:19;;;;;;;10.30;4.15;;;19.80;99.90;;;;;;4927631;29;20043;-86
2022/08/10 07:09:47;;;;;;;8.68;4.35;;;19.80;99.90;;;;;;4933582;29;20051;-87
2022/08/10 07:12:14;;;;;;;9.25;3.67;;;19.70;99.90;;;;;;4929612;28;20127;-86
2022/08/10 07:14:42;;;;;;;9.63;3.58;;;19.80;99.90;;;;;;4932287;28;20142;-86
2022/08/10 07:17:18;;;;;;;8.27;3.65;;;19.90;99.90;;;;;;4929079;28;20456;-87
2022/08/10 07:20:05;;;;;;;9.38;3.70;;;19.90;99.90;;;;;;4946949;29;20307;-85
2022/08/10 07:22:34;;;;;;;8.05;3.30;;;20.00;99.90;;;;;;4930694;29;20039;-86
2022/08/10 07:25:02;;;;;;;7.82;3.40;;;20.10;99.90;;;;;;4915444;29;20374;-87
2022/08/10 07:27:30;;;;;;;11.35;3.35;;;20.20;99.90;;;;;;4932757;28;20051;-86
2022/08/10 07:29:57;;;;;;;8.35;3.38;;;20.20;99.90;;;;;;4949472;28;20043;-87
2022/08/10 07:32:24;;;;;;;9.90;3.60;;;20.40;99.90;;;;;;4931677;29;20043;-86
2022/08/10 07:34:52;;;;;;;7.10;2.72;;;20.40;99.90;;;;;;4946891;28;20059;-85
2022/08/10 07:37:21;;;;;;;8.80;2.78;;;20.60;99.90;;;;;;4933329;29;20110;-86
2022/08/10 07:39:49;;;;;;;7.22;2.25;;;20.70;99.90;;;;;;4949301;28;20523;-86
2022/08/10 07:42:19;;;;;;;8.52;2.47;;;20.90;99.90;;;;;;4916086;29;20050;-86
2022/08/10 07:44:46;;;;;;;9.02;2.50;;;20.90;99.90;;;;;;4947695;29;20306;-85
2022/08/10 07:47:53;;;;;;;6.93;2.55;;;21.00;99.90;;;;;;4947804;28;20102;-86
2022/08/10 07:50:21;;;;;;;9.25;2.40;;;21.00;99.90;;;;;;4880223;29;20082;-86
2022/08/10 07:52:48;;;;;;;10.02;2.45;;;21.20;99.90;;;;;;4926865;28;20058;-86
2022/08/10 07:55:19;;;;;;;7.78;2.42;;;21.30;99.90;;;;;;4934943;28;20106;-87
2022/08/10 07:57:49;;;;;;;6.63;2.20;;;21.30;99.90;;;;;;4935178;29;20459;-87
2022/08/10 08:00:16;;;;;;;7.75;2.40;;;21.40;99.90;;;;;;4936619;28;20031;-87
2022/08/10 08:02:52;;;;;;;7.85;2.40;;;21.50;99.90;;;;;;4925695;29;20049;-86
2022/08/10 08:05:26;;;;;;;8.80;2.20;;;21.50;99.90;;;;;;4943891;28;20497;-88
2022/08/10 08:07:55;;;;;;;7.90;2.50;;;21.60;99.90;;;;;;4936371;29;20665;-87
2022/08/10 08:10:26;;;;;;;9.18;2.33;;;21.60;99.90;;;;;;4935775;29;20046;-86
2022/08/10 08:12:56;;;;;;;7.10;2.10;;;21.70;99.90;;;;;;4949613;28;20114;-85
2022/08/10 08:15:23;;;;;;;6.15;2.30;;;21.80;99.90;;;;;;4934145;29;20106;-85
2022/08/10 08:17:51;;;;;;;7.25;2.40;;;21.80;99.90;;;;;;4934277;28;20039;-87
2022/08/10 08:20:18;;;;;;;8.80;2.45;;;21.90;99.90;;;;;;4936015;29;20077;-88
2022/08/10 08:22:47;;;;;;;5.60;2.00;;;22.00;99.90;;;;;;4935061;28;20065;-86
2022/08/10 08:25:15;;;;;;;6.63;1.98;;;22.20;99.90;;;;;;4945010;28;20039;-87
2022/08/10 08:27:42;;;;;;;5.95;2.17;;;22.20;99.90;;;;;;4933288;28;20412;-86
2022/08/10 08:30:09;;;;;;;8.10;2.30;;;22.20;99.90;;;;;;4935860;29;20119;-86
2022/08/10 08:32:39;;;;;;;8.20;2.50;;;22.30;99.90;;;;;;4934155;28;20101;-86
2022/08/10 08:35:08;;;;;;;6.88;2.33;;;22.50;99.90;;;;;;4934697;29;20046;-86
2022/08/10 08:37:36;;;;;;;7.95;2.47;;;22.50;99.90;;;;;;4949242;28;20074;-88
2022/08/10 08:40:22;;;;;;;8.32;2.70;;;22.60;99.90;;;;;;4949697;28;20045;-85
2022/08/10 08:43:15;;;;;;;7.13;2.28;;;22.70;99.90;;;;;;4936064;29;20045;-86
2022/08/10 08:45:47;;;;;;;6.35;2.10;;;22.70;99.90;;;;;;4932721;29;20039;-85
2022/08/10 08:48:19;;;;;;;8.40;2.30;;;22.80;99.90;;;;;;4934245;28;20054;-87
2022/08/10 08:50:59;;;;;;;8.70;2.20;;;22.90;99.90;;;;;;4936194;29;20287;-87
2022/08/10 08:54:22;;;;;;;7.07;2.47;;;23.00;99.90;;;;;;4934180;29;20043;-85
2022/08/10 08:56:48;;;;;;;10.57;2.93;;;23.00;99.90;;;;;;4949654;28;20080;-85
2022/08/10 08:59:31;;;;;;;7.53;2.30;;;23.10;99.90;;;;;;4949663;28;20039;-84
2022/08/10 09:02:03;;;;;;;6.90;2.20;;;23.10;99.90;;;;;;4953073;28;20043;-86
2022/08/10 09:04:45;;;;;;;7.32;2.08;;;23.10;99.90;;;;;;4951667;28;20039;-86
2022/08/10 09:07:40;;;;;;;7.25;2.47;;;23.10;99.90;;;;;;4935532;29;20528;-84
2022/08/10 09:10:24;;;;;;;7.70;2.28;;;23.20;99.90;;;;;;4933764;28;20500;-86
2022/08/10 09:13:00;;;;;;;7.22;1.85;;;23.20;99.90;;;;;;4949053;28;20508;-86
2022/08/10 09:15:37;;;;;;;6.55;2.10;;;23.30;99.90;;;;;;4950119;28;20054;-85
2022/08/10 09:18:21;;;;;;;6.95;2.05;;;23.40;99.90;;;;;;4947195;28;20183;-85
2022/08/10 09:21:16;;;;;;;5.90;1.98;;;23.50;99.90;;;;;;4966460;28;20058;-86
2022/08/10 09:24:22;;;;;;;7.53;2.15;;;23.50;99.90;;;;;;4942329;28;20035;-86
2022/08/10 09:26:50;;;;;;;7.20;2.20;;;23.50;99.90;;;;;;4883310;29;20054;-85
2022/08/10 09:29:28;;;;;;;8.73;2.13;;;23.50;99.90;;;;;;4934882;28;20492;-86
2022/08/10 09:32:22;;;;;;;8.70;2.17;;;23.60;99.90;;;;;;4934710;29;20043;-84
2022/08/10 09:35:14;;;;;;;6.55;1.90;;;23.60;99.90;;;;;;4933063;28;20168;-85
2022/08/10 09:37:46;;;;;;;6.57;2.10;;;23.60;99.90;;;;;;4931240;28;20583;-85
2022/08/10 09:40:23;;;;;;;6.72;2.00;;;23.70;99.90;;;;;;4950710;28;20042;-86
2022/08/10 09:43:16;;;;;;;6.20;1.98;;;23.90;99.90;;;;;;4934494;29;20404;-86
2022/08/10 09:46:07;;;;;;;7.13;2.13;;;24.00;99.90;;;;;;4948642;28;20077;-84
2022/08/10 09:49:04;;;;;;;6.25;2.30;;;24.10;99.90;;;;;;4942375;28;20039;-86
2022/08/10 09:51:49;;;;;;;6.35;1.80;;;24.20;99.90;;;;;;4934121;28;20081;-88
2022/08/10 09:54:27;;;;;;;5.60;2.10;;;24.30;99.90;;;;;;4949171;28;20452;-85
2022/08/10 09:57:10;;;;;;;6.72;1.90;;;24.30;99.90;;;;;;4932085;29;20174;-86
2022/08/10 09:59:51;;;;;;;7.28;2.10;;;24.30;99.90;;;;;;4945380;28;20154;-87
2022/08/10 10:02:20;;;;;;;8.75;2.17;;;24.30;99.90;;;;;;4932998;28;20066;-87
2022/08/10 10:05:16;;;;;;;5.70;1.90;;;24.30;99.90;;;;;;4930889;28;20480;-87
2022/08/10 10:07:54;;;;;;;5.72;1.70;;;24.40;99.90;;;;;;4932549;29;20051;-86
2022/08/10 10:10:37;;;;;;;4.50;1.70;;;24.60;99.90;;;;;;4946495;28;20079;-87
2022/08/10 10:13:06;;;;;;;;;;;24.70;99.90;;;;;;4934085;29;20122;-87
2022/08/10 10:15:56;;;;;;;4.97;1.55;;;24.80;99.90;;;;;;4933969;29;20296;-87
2022/08/10 10:18:25;;;;;;;5.22;1.73;;;24.90;99.90;;;;;;4934098;29;20468;-87
2022/08/10 10:21:28;;;;;;;5.65;1.70;;;25.00;99.90;;;;;;4929365;28;20085;-86
2022/08/10 10:24:13;;;;;;;6.05;1.90;;;25.10;99.90;;;;;;4947373;28;20035;-86
2022/08/10 10:26:58;;;;;;;5.50;2.22;;;25.10;99.90;;;;;;4944603;29;20182;-85
2022/08/10 10:29:27;;;;;;;6.78;1.80;;;25.10;99.90;;;;;;4948222;29;20078;-86
2022/08/10 10:32:15;;;;;;;6.85;2.05;;;25.00;99.90;;;;;;4931795;29;20039;-86
2022/08/10 10:35:22;;;;;;;4.57;1.67;;;25.00;99.90;;;;;;4936629;28;20114;-85
2022/08/10 10:37:50;;;;;;;4.75;1.60;;;25.10;99.90;;;;;;4931620;29;20141;-86
2022/08/10 10:40:17;;;;;;;7.47;1.90;;;25.10;99.90;;;;;;4932171;29;20046;-87
2022/08/10 10:43:06;;;;;;;4.00;1.80;;;25.20;99.90;;;;;;4929768;29;20043;-87
2022/08/10 10:45:51;;;;;;;4.82;1.58;;;25.20;99.90;;;;;;4945860;28;20045;-87
2022/08/10 10:48:40;;;;;;;4.18;1.65;;;25.30;99.90;;;;;;4932798;29;20051;-85
2022/08/10 10:51:37;;;;;;;6.93;1.70;;;25.40;99.90;;;;;;4934306;29;20051;-85
2022/08/10 10:54:12;;;;;;;6.20;1.80;;;25.40;99.90;;;;;;4928042;29;20047;-86
2022/08/10 10:57:04;;;;;;;4.82;1.80;;;25.40;99.90;;;;;;4933519;29;20122;-87
2022/08/10 10:59:46;;;;;;;4.38;1.58;;;25.50;99.90;;;;;;4931829;29;20472;-85
2022/08/10 11:02:32;;;;;;;6.20;1.90;;;25.50;99.90;;;;;;4927448;29;20391;-87
2022/08/10 11:05:08;;;;;;;5.57;1.70;;;25.60;99.90;;;;;;4939280;29;20122;-86
2022/08/10 11:07:41;;;;;;;5.07;1.50;;;25.60;99.90;;;;;;4949446;28;20568;-86
2022/08/10 11:10:16;;;;;;;6.03;1.95;;;25.70;99.90;;;;;;4932161;29;20048;-84
2022/08/10 11:13:15;;;;;;;4.57;1.65;;;25.80;99.90;;;;;;4929438;28;20058;-86
2022/08/10 11:16:00;;;;;;;5.00;1.67;;;25.80;99.90;;;;;;4928011;29;20058;-85
2022/08/10 11:18:38;;;;;;;4.65;1.70;;;25.90;99.90;;;;;;4932237;29;20048;-86
2022/08/10 11:21:42;;;;;;;4.18;1.63;;;25.90;99.90;;;;;;4916965;29;20044;-88
2022/08/10 11:24:37;;;;;;;6.55;1.92;;;25.90;99.90;;;;;;4909972;29;20051;-85
2022/08/10 11:27:22;;;;;;;6.63;1.88;;;26.00;99.90;;;;;;4936717;29;20039;-86
2022/08/10 11:30:03;;;;;;;4.50;1.80;;;26.00;99.90;;;;;;4950503;28;20109;-88
2022/08/10 11:32:50;;;;;;;3.53;1.60;;;26.00;99.90;;;;;;4948603;28;20170;-87
2022/08/10 11:35:43;;;;;;;4.70;1.67;;;26.00;99.90;;;;;;4936849;29;20420;-86
2022/08/10 11:38:09;;;;;;;;;;;26.10;99.90;;;;;;4951438;29;20078;-85
2022/08/10 11:40:48;;;;;;;5.47;1.70;;;26.00;99.90;;;;;;4950799;28;19958;-86
2022/08/10 11:43:26;;;;;;;5.55;1.70;;;26.00;99.90;;;;;;4934792;29;20043;-86
2022/08/10 11:46:18;;;;;;;6.07;1.67;;;26.10;99.90;;;;;;4935484;29;20043;-87
2022/08/10 11:49:26;;;;;;;4.35;1.60;;;26.20;99.90;;;;;;4935579;29;20105;-86
2022/08/10 11:51:57;;;;;;;5.47;1.65;;;26.30;99.90;;;;;;4950136;28;20051;-87
2022/08/10 11:54:36;;;;;;;3.97;1.45;;;26.40;99.90;;;;;;4949110;28;20102;-86
2022/08/10 11:57:02;;;;;;;5.10;1.70;;;26.40;99.90;;;;;;4952317;28;20039;-86
2022/08/10 12:02:20;;;;;;;4.50;1.60;;;26.40;99.90;;;;;;4949947;28;20043;-86
2022/08/10 12:04:59;;;;;;;4.40;1.60;;;26.50;99.90;;;;;;4934468;28;20149;-85
2022/08/10 12:07:26;;;;;;;5.45;1.55;;;26.50;99.90;;;;;;4949503;28;20048;-85
2022/08/10 12:09:54;;;;;;;5.85;1.80;;;26.60;99.90;;;;;;4952867;29;20073;-85
2022/08/10 12:12:22;;;;;;;4.15;1.30;;;26.50;99.90;;;;;;4937583;29;20043;-86
2022/08/10 12:14:55;;;;;;;4.75;1.63;;;26.50;99.90;;;;;;4921366;28;20047;-84
2022/08/10 12:17:34;;;;;;;6.30;1.60;;;26.50;99.90;;;;;;4955567;28;20087;-85
2022/08/10 12:20:10;;;;;;;3.47;1.50;;;26.50;99.90;;;;;;4957677;28;20558;-84
2022/08/10 12:22:47;;;;;;;6.57;1.75;;;26.70;99.90;;;;;;4944171;29;20397;-85
2022/08/10 12:25:20;;;;;;;4.32;1.50;;;26.70;99.90;;;;;;4945463;29;20055;-85
2022/08/10 12:27:51;;;;;;;5.18;1.73;;;26.70;99.90;;;;;;4939981;28;20093;-87
2022/08/10 12:30:21;;;;;;;4.45;1.67;;;26.80;99.90;;;;;;4950020;28;20186;-85
2022/08/10 12:33:01;;;;;;;4.95;1.50;;;26.80;99.90;;;;;;4934195;29;20264;-86
2022/08/10 12:35:40;;;;;;;5.25;1.70;;;26.70;99.90;;;;;;4952499;28;20050;-85
2022/08/10 12:38:33;;;;;;;5.13;1.60;;;26.70;99.90;;;;;;4935227;29;20482;-85
2022/08/10 12:41:08;;;;;;;5.97;1.85;;;26.70;99.90;;;;;;4955245;28;20047;-86
2022/08/10 12:43:50;;;;;;;4.40;1.70;;;26.70;99.90;;;;;;4946174;28;20455;-86
2022/08/10 12:46:24;;;;;;;4.47;1.67;;;26.70;99.90;;;;;;4935519;29;20644;-86
2022/08/10 12:49:07;;;;;;;7.10;1.98;;;26.50;99.90;;;;;;4935108;29;20404;-86
2022/08/10 12:51:35;;;;;;;5.70;1.95;;;26.50;99.90;;;;;;4950280;28;20515;-85
2022/08/10 12:54:17;;;;;;;6.60;1.73;;;26.70;99.90;;;;;;4933013;29;20050;-85
2022/08/10 12:56:48;;;;;;;6.63;1.98;;;26.70;99.90;;;;;;4933916;29;20043;-86
2022/08/10 12:59:16;;;;;;;6.95;1.80;;;26.60;99.90;;;;;;4934563;29;20051;-85
2022/08/10 13:01:45;;;;;;;9.90;1.70;;;26.60;99.90;;;;;;4935620;29;20043;-85
2022/08/10 13:04:15;;;;;;;5.82;2.03;;;26.70;99.90;;;;;;4935041;29;20043;-86
2022/08/10 13:06:45;;;;;;;6.07;1.70;;;26.70;99.90;;;;;;4934964;29;20043;-87
2022/08/10 13:09:12;;;;;;;4.85;1.73;;;26.80;99.90;;;;;;4931118;29;20547;-86
2022/08/10 13:11:58;;;;;;;4.35;1.70;;;26.80;99.90;;;;;;4933136;29;20453;-86
2022/08/10 13:14:56;;;;;;;5.38;1.90;;;26.80;99.90;;;;;;4934371;29;20070;-86
2022/08/10 13:17:32;;;;;;;7.03;1.98;;;26.80;99.90;;;;;;4927273;29;20051;-86
2022/08/10 13:33:58;;;;;;;4.72;1.70;;;26.80;99.90;;;;;;4961854;28;20136;-92